Time,TemperatureF,DewpointF,PressureIn,WindDirection,WindDirectionDegrees,WindSpeedMPH,WindSpeedGustMPH,Humidity,HourlyPrecipIn,Conditions,Clouds,dailyrainin,SoftwareType,DateUTC
2013-06-06 00:02:00,69.0,50.0,29.85,North,7,3.0,3.0,50,0.00,,,0.00,,2013-06-06 07:02:00,
2013-06-06 00:12:00,69.0,50.0,29.85,North,7,3.0,3.0,50,0.00,,,0.00,,2013-06-06 07:12:00,
2013-06-06 00:22:00,68.0,49.0,29.86,North,0,0.0,2.0,51,0.00,,,0.00,,2013-06-06 07:22:00,
2013-06-06 00:32:00,67.0,48.0,29.85,NNW,338,0.0,0.0,51,0.00,,,0.00,,2013-06-06 07:32:00,
2013-06-06 00:42:00,67.0,48.0,29.85,NNW,338,0.0,0.0,51,0.00,,,0.00,,2013-06-06 07:42:00,
2013-06-06 00:52:00,67.0,48.0,29.85,NNW,338,0.0,0.0,51,0.00,,,0.00,,2013-06-06 07:52:00,
2013-06-06 01:02:00,66.0,48.0,29.85,North,0,1.0,6.0,53,0.00,,,0.00,,2013-06-06 08:02:00,
2013-06-06 01:11:00,66.0,48.0,29.85,North,0,1.0,6.0,53,0.00,,,0.00,,2013-06-06 08:11:00,
2013-06-06 01:22:00,66.0,48.0,29.85,North,0,2.0,2.0,53,0.00,,,0.00,,2013-06-06 08:22:00,
2013-06-06 01:32:00,66.0,48.0,29.85,North,0,2.0,2.0,53,0.00,,,0.00,,2013-06-06 08:32:00,
2013-06-06 01:42:00,65.0,48.0,29.85,NW,315,0.0,0.0,55,0.00,,,0.00,,2013-06-06 08:42:00,
2013-06-06 01:52:00,65.0,48.0,29.85,NW,315,0.0,0.0,55,0.00,,,0.00,,2013-06-06 08:52:00,
2013-06-06 02:02:00,65.0,48.0,29.85,NW,315,0.0,0.0,55,0.00,,,0.00,,2013-06-06 09:02:00,
2013-06-06 02:12:00,65.0,48.0,29.85,NW,315,0.0,0.0,55,0.00,,,0.00,,2013-06-06 09:12:00,
2013-06-06 02:22:00,64.0,47.0,29.85,North,0,2.0,2.0,55,0.00,,,0.00,,2013-06-06 09:22:00,
2013-06-06 02:32:00,63.0,47.0,29.85,NE,45,0.0,5.0,55,0.00,,,0.00,,2013-06-06 09:32:00,
2013-06-06 02:43:00,63.0,47.0,29.85,NE,45,0.0,5.0,55,0.00,,,0.00,,2013-06-06 09:43:00,
2013-06-06 02:53:00,63.0,48.0,29.85,NNW,338,2.0,2.0,57,0.00,,,0.00,,2013-06-06 09:53:00,
2013-06-06 03:02:00,63.0,48.0,29.85,NNW,338,2.0,2.0,57,0.00,,,0.00,,2013-06-06 10:02:00,
2013-06-06 03:12:00,62.0,47.0,29.85,SSW,203,0.0,0.0,57,0.00,,,0.00,,2013-06-06 10:12:00,
2013-06-06 03:22:00,62.0,47.0,29.85,SSW,203,0.0,0.0,57,0.00,,,0.00,,2013-06-06 10:22:00,
2013-06-06 03:32:00,62.0,47.0,29.85,North,0,0.0,0.0,57,0.00,,,0.00,,2013-06-06 10:32:00,
2013-06-06 03:42:00,62.0,47.0,29.85,North,0,0.0,0.0,57,0.00,,,0.00,,2013-06-06 10:42:00,
2013-06-06 03:52:00,62.0,47.0,29.85,WNW,293,0.0,0.0,57,0.00,,,0.00,,2013-06-06 10:52:00,
2013-06-06 04:02:00,62.0,47.0,29.85,WNW,293,0.0,0.0,57,0.00,,,0.00,,2013-06-06 11:02:00,
2013-06-06 04:12:00,62.0,47.0,29.85,WNW,293,0.0,0.0,57,0.00,,,0.00,,2013-06-06 11:12:00,
2013-06-06 04:22:00,62.0,47.0,29.85,NNE,23,0.0,0.0,59,0.00,,,0.00,,2013-06-06 11:22:00,
2013-06-06 04:32:00,62.0,47.0,29.85,North,0,0.0,0.0,58,0.00,,,0.00,,2013-06-06 11:32:00,
2013-06-06 04:42:00,62.0,47.0,29.85,North,0,0.0,0.0,58,0.00,,,0.00,,2013-06-06 11:42:00,
2013-06-06 04:52:00,62.0,47.0,29.85,North,0,0.0,0.0,58,0.00,,,0.00,,2013-06-06 11:52:00,
2013-06-06 05:02:00,61.0,47.0,29.85,NNW,338,0.0,0.0,59,0.00,,,0.00,,2013-06-06 12:02:00,
2013-06-06 05:12:00,61.0,47.0,29.85,NNW,338,0.0,0.0,59,0.00,,,0.00,,2013-06-06 12:12:00,
2013-06-06 05:22:00,61.0,47.0,29.85,NNW,338,0.0,0.0,59,0.00,,,0.00,,2013-06-06 12:22:00,
2013-06-06 05:32:00,60.0,46.0,29.85,NNW,338,0.0,0.0,59,0.00,,,0.00,,2013-06-06 12:32:00,
2013-06-06 05:42:00,60.0,46.0,29.85,NNW,338,0.0,0.0,60,0.00,,,0.00,,2013-06-06 12:42:00,
2013-06-06 05:53:00,60.0,46.0,29.85,NNW,338,0.0,0.0,60,0.00,,,0.00,,2013-06-06 12:53:00,
2013-06-06 06:02:00,60.0,46.0,29.85,NNW,338,0.0,0.0,60,0.00,,,0.00,,2013-06-06 13:02:00,
2013-06-06 06:12:00,60.0,46.0,29.85,NNW,338,0.0,0.0,60,0.00,,,0.00,,2013-06-06 13:12:00,
2013-06-06 06:22:00,60.0,46.0,29.85,NNW,338,0.0,0.0,60,0.00,,,0.00,,2013-06-06 13:22:00,
2013-06-06 06:53:00,59.0,47.0,29.86,North,0,0.0,0.0,65,0.00,,,0.00,,2013-06-06 13:53:00,
2013-06-06 07:03:00,59.0,48.0,29.86,North,0,0.0,0.0,67,0.00,,,0.00,,2013-06-06 14:03:00,
2013-06-06 07:12:00,59.0,48.0,29.86,North,0,0.0,0.0,67,0.00,,,0.00,,2013-06-06 14:12:00,
2013-06-06 07:22:00,61.0,50.0,29.86,North,0,0.0,0.0,66,0.00,,,0.00,,2013-06-06 14:22:00,
2013-06-06 07:32:00,62.0,50.0,29.86,North,0,0.0,2.0,64,0.00,,,0.00,,2013-06-06 14:32:00,
2013-06-06 07:42:00,62.0,50.0,29.86,North,0,0.0,2.0,64,0.00,,,0.00,,2013-06-06 14:42:00,
2013-06-06 07:53:00,62.0,50.0,29.86,North,0,0.0,2.0,64,0.00,,,0.00,,2013-06-06 14:53:00,
2013-06-06 08:02:00,66.0,51.0,29.86,North,0,0.0,1.0,59,0.00,,,0.00,,2013-06-06 15:02:00,
2013-06-06 08:12:00,66.0,51.0,29.86,North,0,0.0,1.0,59,0.00,,,0.00,,2013-06-06 15:12:00,
2013-06-06 08:22:00,66.0,51.0,29.86,North,0,0.0,1.0,59,0.00,,,0.00,,2013-06-06 15:22:00,
2013-06-06 08:32:00,69.0,52.0,29.86,NNW,338,0.0,3.0,54,0.00,,,0.00,,2013-06-06 15:32:00,
2013-06-06 08:42:00,69.0,52.0,29.86,NNW,338,0.0,3.0,54,0.00,,,0.00,,2013-06-06 15:42:00,
2013-06-06 08:53:00,69.0,52.0,29.86,NNW,338,0.0,3.0,54,0.00,,,0.00,,2013-06-06 15:53:00,
2013-06-06 09:02:00,69.0,51.0,29.87,North,0,0.0,2.0,53,0.00,,,0.00,,2013-06-06 16:02:00,
2013-06-06 09:12:00,69.0,51.0,29.87,North,0,0.0,2.0,53,0.00,,,0.00,,2013-06-06 16:12:00,
2013-06-06 09:22:00,69.0,51.0,29.86,North,0,2.0,2.0,53,0.00,,,0.00,,2013-06-06 16:22:00,
2013-06-06 09:33:00,70.0,52.0,29.87,NNW,338,2.0,4.0,52,0.00,,,0.00,,2013-06-06 16:33:00,
2013-06-06 09:43:00,70.0,52.0,29.87,NNW,338,2.0,4.0,52,0.00,,,0.00,,2013-06-06 16:43:00,
2013-06-06 09:53:00,70.0,52.0,29.87,NNW,338,2.0,4.0,52,0.00,,,0.00,,2013-06-06 16:53:00,
2013-06-06 10:02:00,71.0,51.0,29.86,NNW,338,0.0,6.0,50,0.00,,,0.00,,2013-06-06 17:02:00,
2013-06-06 10:12:00,73.0,52.0,29.86,NNW,338,0.0,5.0,48,0.00,,,0.00,,2013-06-06 17:12:00,
2013-06-06 10:22:00,73.0,52.0,29.86,NNW,338,0.0,5.0,48,0.00,,,0.00,,2013-06-06 17:22:00,
2013-06-06 10:32:00,74.0,52.0,29.86,NNW,338,3.0,5.0,46,0.00,,,0.00,,2013-06-06 17:32:00,
2013-06-06 10:43:00,74.0,52.0,29.86,NNW,338,3.0,5.0,46,0.00,,,0.00,,2013-06-06 17:43:00,
2013-06-06 10:53:00,76.0,52.0,29.86,North,0,2.0,4.0,44,0.00,,,0.00,,2013-06-06 17:53:00,
2013-06-06 11:02:00,79.0,53.0,29.86,NNW,338,0.0,4.0,41,0.00,,,0.00,,2013-06-06 18:02:00,
2013-06-06 11:22:00,79.0,53.0,29.86,NNW,338,0.0,4.0,41,0.00,,,0.00,,2013-06-06 18:22:00,
2013-06-06 11:33:00,81.0,54.0,29.86,NNW,344,2.0,4.0,39,0.00,,,0.00,,2013-06-06 18:33:00,
2013-06-06 11:42:00,81.0,54.0,29.86,NNW,344,2.0,4.0,39,0.00,,,0.00,,2013-06-06 18:42:00,
2013-06-06 11:53:00,83.0,55.0,29.85,North,0,1.0,1.0,38,0.00,,,0.00,,2013-06-06 18:53:00,
2013-06-06 12:02:00,83.0,54.0,29.85,North,0,0.0,1.0,37,0.00,,,0.00,,2013-06-06 19:02:00,
2013-06-06 12:12:00,83.0,54.0,29.85,North,0,0.0,1.0,37,0.00,,,0.00,,2013-06-06 19:12:00,
2013-06-06 12:23:00,86.0,56.0,29.85,SSE,149,3.0,3.0,36,0.00,,,0.00,,2013-06-06 19:23:00,
2013-06-06 12:32:00,87.0,55.0,29.85,SE,135,0.0,3.0,34,0.00,,,0.00,,2013-06-06 19:32:00,
2013-06-06 12:42:00,87.0,55.0,29.85,SE,135,0.0,3.0,34,0.00,,,0.00,,2013-06-06 19:42:00,
2013-06-06 12:53:00,87.0,55.0,29.85,SE,135,0.0,3.0,34,0.00,,,0.00,,2013-06-06 19:53:00,
2013-06-06 13:02:00,89.0,55.0,29.84,North,0,3.0,3.0,32,0.00,,,0.00,,2013-06-06 20:02:00,
2013-06-06 13:53:00,92.0,55.0,29.82,SE,135,2.0,3.0,29,0.00,,,0.00,,2013-06-06 20:53:00,
2013-06-06 14:03:00,94.0,55.0,29.82,West,270,0.0,7.0,27,0.00,,,0.00,,2013-06-06 21:03:00,
2013-06-06 14:33:00,96.0,54.0,29.81,ESE,122,3.0,6.0,25,0.00,,,0.00,,2013-06-06 21:33:00,
2013-06-06 14:43:00,96.0,54.0,29.81,ESE,122,3.0,6.0,25,0.00,,,0.00,,2013-06-06 21:43:00,
2013-06-06 14:53:00,97.0,55.0,29.80,ENE,78,1.0,6.0,25,0.00,,,0.00,,2013-06-06 21:53:00,
2013-06-06 15:02:00,97.0,55.0,29.80,ENE,78,1.0,6.0,25,0.00,,,0.00,,2013-06-06 22:02:00,
2013-06-06 15:22:00,100.0,55.0,29.79,NNE,23,0.0,2.0,23,0.00,,,0.00,,2013-06-06 22:22:00,
2013-06-06 15:33:00,101.0,55.0,29.78,North,0,1.0,4.0,22,0.00,,,0.00,,2013-06-06 22:33:00,
2013-06-06 15:43:00,101.0,55.0,29.78,North,0,1.0,4.0,22,0.00,,,0.00,,2013-06-06 22:43:00,
2013-06-06 15:53:00,102.0,55.0,29.78,NNE,33,2.0,6.0,21,0.00,,,0.00,,2013-06-06 22:53:00,
2013-06-06 16:02:00,103.0,57.0,29.78,East,99,2.0,2.0,22,0.00,,,0.00,,2013-06-06 23:02:00,
2013-06-06 16:22:00,105.0,54.0,29.77,North,0,3.0,4.0,19,0.00,,,0.00,,2013-06-06 23:22:00,
2013-06-06 16:33:00,105.0,56.0,29.76,SSE,158,3.0,4.0,20,0.00,,,0.00,,2013-06-06 23:33:00,
2013-06-06 16:43:00,105.0,56.0,29.76,SSE,158,3.0,4.0,20,0.00,,,0.00,,2013-06-06 23:43:00,
2013-06-06 16:52:00,105.0,54.0,29.76,NNW,338,3.0,3.0,19,0.00,,,0.00,,2013-06-06 23:52:00,
2013-06-06 17:02:00,105.0,54.0,29.76,North,352,3.0,3.0,19,0.00,,,0.00,,2013-06-07 00:02:00,
2013-06-06 17:22:00,105.0,54.0,29.76,SE,135,2.0,3.0,19,0.00,,,0.00,,2013-06-07 00:22:00,
2013-06-06 17:52:00,103.0,53.0,29.76,NNW,338,0.0,0.0,19,0.00,,,0.00,,2013-06-07 00:52:00,
2013-06-06 18:02:00,99.0,52.0,29.75,North,0,0.0,2.0,21,0.00,,,0.00,,2013-06-07 01:02:00,
2013-06-06 18:22:00,98.0,51.0,29.75,SE,135,0.0,2.0,21,0.00,,,0.00,,2013-06-07 01:22:00,
2013-06-06 18:32:00,97.0,52.0,29.74,WNW,293,0.0,0.0,22,0.00,,,0.00,,2013-06-07 01:32:00,
2013-06-06 18:42:00,97.0,52.0,29.74,WNW,293,0.0,0.0,22,0.00,,,0.00,,2013-06-07 01:42:00,
2013-06-06 18:52:00,96.0,52.0,29.74,NNW,338,0.0,4.0,23,0.00,,,0.00,,2013-06-07 01:52:00,
2013-06-06 19:02:00,95.0,54.0,29.74,NW,315,1.0,1.0,25,0.00,,,0.00,,2013-06-07 02:02:00,
2013-06-06 19:22:00,95.0,55.0,29.74,North,0,0.0,2.0,26,0.00,,,0.00,,2013-06-07 02:22:00,
2013-06-06 19:32:00,94.0,55.0,29.74,NNW,338,0.0,0.0,27,0.00,,,0.00,,2013-06-07 02:32:00,
2013-06-06 19:42:00,94.0,55.0,29.74,NNW,338,0.0,0.0,27,0.00,,,0.00,,2013-06-07 02:42:00,
2013-06-06 19:52:00,93.0,54.0,29.74,NW,315,0.0,0.0,27,0.00,,,0.00,,2013-06-07 02:52:00,
2013-06-06 20:02:00,93.0,54.0,29.74,NNW,338,0.0,0.0,27,0.00,,,0.00,,2013-06-07 03:02:00,
2013-06-06 20:11:00,93.0,54.0,29.74,NNW,338,0.0,0.0,27,0.00,,,0.00,,2013-06-07 03:11:00,
2013-06-06 20:22:00,92.0,55.0,29.74,NNW,338,0.0,0.0,29,0.00,,,0.00,,2013-06-07 03:22:00,
2013-06-06 20:32:00,91.0,54.0,29.75,NE,43,5.0,6.0,29,0.00,,,0.00,,2013-06-07 03:32:00,
2013-06-06 20:43:00,91.0,54.0,29.75,NE,43,5.0,6.0,29,0.00,,,0.00,,2013-06-07 03:43:00,
2013-06-06 20:53:00,90.0,54.0,29.74,NNE,23,0.0,6.0,30,0.00,,,0.00,,2013-06-07 03:53:00,
2013-06-06 21:03:00,89.0,54.0,29.75,North,0,0.0,0.0,31,0.00,,,0.00,,2013-06-07 04:03:00,
2013-06-06 21:12:00,89.0,54.0,29.75,North,0,0.0,0.0,31,0.00,,,0.00,,2013-06-07 04:12:00,
2013-06-06 21:22:00,87.0,53.0,29.75,North,0,0.0,1.0,31,0.00,,,0.00,,2013-06-07 04:22:00,
2013-06-06 21:33:00,86.0,53.0,29.76,North,0,0.0,0.0,32,0.00,,,0.00,,2013-06-07 04:33:00,
2013-06-06 21:42:00,86.0,53.0,29.76,North,0,0.0,0.0,32,0.00,,,0.00,,2013-06-07 04:42:00,
2013-06-06 21:53:00,85.0,54.0,29.77,North,0,0.0,0.0,35,0.00,,,0.00,,2013-06-07 04:53:00,
2013-06-06 22:02:00,83.0,52.0,29.77,NW,315,0.0,0.0,35,0.00,,,0.00,,2013-06-07 05:02:00,
2013-06-06 22:12:00,83.0,52.0,29.77,NW,315,0.0,0.0,35,0.00,,,0.00,,2013-06-07 05:12:00,
2013-06-06 22:22:00,82.0,52.0,29.78,WNW,293,0.0,0.0,36,0.00,,,0.00,,2013-06-07 05:22:00,
2013-06-06 22:32:00,82.0,52.0,29.78,WNW,293,0.0,0.0,36,0.00,,,0.00,,2013-06-07 05:32:00,
2013-06-06 22:42:00,82.0,52.0,29.78,WNW,293,0.0,0.0,36,0.00,,,0.00,,2013-06-07 05:42:00,
2013-06-06 22:52:00,80.0,51.0,29.78,WNW,293,0.0,0.0,37,0.00,,,0.00,,2013-06-07 05:52:00,
2013-06-06 23:02:00,80.0,51.0,29.78,WNW,293,0.0,0.0,37,0.00,,,0.00,,2013-06-07 06:02:00,
2013-06-06 23:12:00,80.0,51.0,29.78,WNW,293,0.0,0.0,37,0.00,,,0.00,,2013-06-07 06:12:00,
2013-06-06 23:21:00,78.0,51.0,29.79,WNW,293,0.0,0.0,39,0.00,,,0.00,,2013-06-07 06:21:00,
2013-06-06 23:32:00,76.0,52.0,29.78,WNW,293,0.0,0.0,43,0.00,,,0.00,,2013-06-07 06:32:00,
2013-06-06 23:42:00,76.0,52.0,29.78,WNW,293,0.0,0.0,43,0.00,,,0.00,,2013-06-07 06:42:00,
2013-06-06 23:52:00,76.0,52.0,29.78,WNW,293,0.0,0.0,44,0.00,,,0.00,,2013-06-07 06:52:00,